createdAt,value
2019-02-14T00:01:15.884Z,7.90
2019-02-14T00:03:46.691Z,7.90
2019-02-14T00:06:17.031Z,9.78
2019-02-14T00:08:47.335Z,10.68
2019-02-14T00:11:17.648Z,13.68
2019-02-14T00:13:47.992Z,7.17
2019-02-14T00:16:18.331Z,7.75
2019-02-14T00:18:49.787Z,8.30
2019-02-14T00:21:20.128Z,9.95
2019-02-14T00:23:50.531Z,11.53
2019-02-14T00:26:20.833Z,7.72
2019-02-14T00:28:51.159Z,9.30
2019-02-14T00:31:21.484Z,9.15
2019-02-14T00:33:51.836Z,8.75
2019-02-14T00:36:22.235Z,9.23
2019-02-14T00:38:52.686Z,10.58
2019-02-14T00:41:22.963Z,11.43
2019-02-14T00:43:53.565Z,10.50
2019-02-14T00:46:23.863Z,11.00
2019-02-14T00:48:54.249Z,8.40
2019-02-14T00:51:24.532Z,7.25
2019-02-14T00:53:54.739Z,8.43
2019-02-14T00:56:25.211Z,10.32
2019-02-14T00:58:55.644Z,7.60
2019-02-14T01:01:25.936Z,8.43
2019-02-14T01:03:57.426Z,7.97
2019-02-14T01:06:27.759Z,8.43
2019-02-14T01:08:58.147Z,7.20
2019-02-14T01:11:28.520Z,7.90
2019-02-14T01:13:59.075Z,7.70
2019-02-14T01:16:29.457Z,7.33
2019-02-14T01:18:59.708Z,10.00
2019-02-14T01:21:30.005Z,9.55
2019-02-14T01:24:00.457Z,9.10
2019-02-14T01:26:30.903Z,7.72
2019-02-14T01:29:01.353Z,9.70
2019-02-14T01:31:31.791Z,10.85
2019-02-14T01:34:02.266Z,8.83
2019-02-14T01:36:32.491Z,12.18
2019-02-14T01:39:02.759Z,7.78
2019-02-14T01:41:34.637Z,6.83
2019-02-14T01:44:04.989Z,9.15
2019-02-14T01:46:35.351Z,8.40
2019-02-14T01:49:05.762Z,9.78
2019-02-14T01:51:36.141Z,6.83
2019-02-14T01:54:06.411Z,8.30
2019-02-14T01:56:36.863Z,8.20
2019-02-14T01:59:07.148Z,7.70
2019-02-14T02:01:38.526Z,11.38
2019-02-14T02:04:08.958Z,7.35
2019-02-14T02:06:39.365Z,8.45
2019-02-14T02:09:09.806Z,8.35
2019-02-14T02:11:40.377Z,6.05
2019-02-14T02:14:10.653Z,8.05
2019-02-14T02:16:41.014Z,7.62
2019-02-14T02:19:11.359Z,9.23
2019-02-14T02:21:41.806Z,9.10
2019-02-14T02:24:12.121Z,8.98
2019-02-14T02:26:42.476Z,8.08
2019-02-14T02:29:12.844Z,7.33
2019-02-14T02:31:43.118Z,7.85
2019-02-14T02:34:13.500Z,10.05
2019-02-14T02:36:44.105Z,9.05
2019-02-14T02:39:14.579Z,8.48
2019-02-14T02:41:44.938Z,9.55
2019-02-14T02:44:15.306Z,8.43
2019-02-14T02:46:45.643Z,10.48
2019-02-14T02:49:15.997Z,9.90
2019-02-14T02:51:46.324Z,7.72
2019-02-14T02:54:16.822Z,11.43
2019-02-14T02:56:47.207Z,8.23
2019-02-14T02:59:17.589Z,8.35
2019-02-14T03:01:47.962Z,8.85
2019-02-14T03:04:19.246Z,10.20
2019-02-14T03:06:49.735Z,9.15
2019-02-14T03:09:20.092Z,7.97
2019-02-14T03:11:50.452Z,7.50
2019-02-14T03:14:20.886Z,9.33
2019-02-14T03:16:51.289Z,8.53
2019-02-14T03:19:21.637Z,8.68
2019-02-14T03:21:53.060Z,6.65
2019-02-14T03:24:23.359Z,7.12
2019-02-14T03:26:53.778Z,7.90
2019-02-14T03:29:24.035Z,8.60
2019-02-14T03:31:54.455Z,9.03
2019-02-14T03:34:24.827Z,7.45
2019-02-14T03:36:55.090Z,9.18
2019-02-14T03:39:25.405Z,7.17
2019-02-14T03:41:55.704Z,8.25
2019-02-14T03:44:25.957Z,8.50
2019-02-14T03:46:56.572Z,9.85
2019-02-14T03:49:26.831Z,5.37
2019-02-14T03:51:57.160Z,7.92
2019-02-14T03:54:27.595Z,8.83
2019-02-14T03:56:57.981Z,8.38
2019-02-14T03:59:28.383Z,8.75
2019-02-14T04:01:58.756Z,7.58
2019-02-14T04:04:29.158Z,8.28
2019-02-14T04:06:59.588Z,6.60
2019-02-14T04:09:30.060Z,7.45
2019-02-14T04:12:00.365Z,8.00
2019-02-14T04:14:30.684Z,7.28
2019-02-14T04:17:01.032Z,7.35
2019-02-14T04:19:31.372Z,8.50
2019-02-14T04:22:01.694Z,7.22
2019-02-14T04:24:32.071Z,7.30
2019-02-14T04:27:02.372Z,9.53
2019-02-14T04:29:32.767Z,10.05
2019-02-14T04:32:04.020Z,6.55
2019-02-14T04:34:34.429Z,6.60
2019-02-14T04:37:04.789Z,10.98
2019-02-14T04:39:35.237Z,7.28
2019-02-14T04:42:05.544Z,6.90
2019-02-14T04:44:35.908Z,9.68
2019-02-14T04:47:06.322Z,7.87
2019-02-14T04:49:36.765Z,7.50
2019-02-14T04:52:07.113Z,6.37
2019-02-14T04:54:37.470Z,6.33
2019-02-14T04:57:07.885Z,7.35
2019-02-14T04:59:38.326Z,9.83
2019-02-14T05:02:08.725Z,6.30
2019-02-14T05:04:38.925Z,8.43
2019-02-14T05:07:09.527Z,7.15
2019-02-14T05:09:39.836Z,7.17
2019-02-14T05:12:10.232Z,7.25
2019-02-14T05:14:40.532Z,7.25
2019-02-14T05:17:10.962Z,7.62
2019-02-14T05:19:41.263Z,7.47
2019-02-14T05:22:11.636Z,8.23
2019-02-14T05:24:41.955Z,8.60
2019-02-14T05:27:12.179Z,5.45
2019-02-14T05:29:42.398Z,7.03
2019-02-14T05:32:12.855Z,8.23
2019-02-14T05:34:44.243Z,6.28
2019-02-14T05:37:14.603Z,6.70
2019-02-14T05:39:45.007Z,8.23
2019-02-14T05:42:15.455Z,8.75
2019-02-14T05:44:45.833Z,6.40
2019-02-14T05:47:16.176Z,9.40
2019-02-14T05:49:46.409Z,6.45
2019-02-14T05:52:16.765Z,7.03
2019-02-14T05:54:47.293Z,9.43
2019-02-14T05:57:17.612Z,6.90
2019-02-14T05:59:47.880Z,9.40
2019-02-14T06:02:19.130Z,6.22
2019-02-14T06:04:49.500Z,7.40
2019-02-14T06:07:19.816Z,7.00
2019-02-14T06:09:51.189Z,6.83
2019-02-14T06:12:21.555Z,5.80
2019-02-14T06:14:51.935Z,6.22
2019-02-14T06:17:22.152Z,8.98
2019-02-14T06:19:52.406Z,6.30
2019-02-14T06:22:22.703Z,6.95
2019-02-14T06:24:52.924Z,8.10
2019-02-14T06:27:23.127Z,8.13
2019-02-14T06:29:53.407Z,7.40
2019-02-14T06:32:23.719Z,8.70
2019-02-14T06:34:54.008Z,8.30
2019-02-14T06:37:24.265Z,8.00
2019-02-14T06:39:54.658Z,7.17
2019-02-14T06:42:24.929Z,7.33
2019-02-14T06:44:55.098Z,9.08
2019-02-14T06:47:25.229Z,6.95
2019-02-14T06:49:55.546Z,6.72
2019-02-14T06:52:25.743Z,6.80
2019-02-14T06:54:56.058Z,8.80
2019-02-14T06:57:26.285Z,8.78
2019-02-14T06:59:56.719Z,10.58
2019-02-14T07:02:26.944Z,10.30
2019-02-14T07:04:57.251Z,9.10
2019-02-14T07:07:27.865Z,14.65
2019-02-14T07:09:58.603Z,13.65
2019-02-14T07:12:29.676Z,14.28
2019-02-14T07:15:01.441Z,16.00
2019-02-14T07:20:00.332Z,19.65
2019-02-14T07:22:36.814Z,16.93
2019-02-14T07:25:09.177Z,31.62
2019-02-14T07:30:53.604Z,18.87
2019-02-14T07:33:29.487Z,26.02
2019-02-14T07:39:21.900Z,29.75
2019-02-14T07:50:28.923Z,28.10
2019-02-14T07:56:11.169Z,23.50
2019-02-14T07:58:44.037Z,18.07
2019-02-14T08:12:48.869Z,20.00
2019-02-14T08:15:18.588Z,18.37
2019-02-14T08:17:54.104Z,24.92
2019-02-14T08:20:45.318Z,16.42
2019-02-14T08:23:33.216Z,20.97
2019-02-14T08:26:18.241Z,26.55
2019-02-14T08:28:51.888Z,23.85
2019-02-14T08:31:22.002Z,23.85
2019-02-14T08:34:12.577Z,23.42
2019-02-14T08:39:53.148Z,36.98
2019-02-14T08:47:29.598Z,26.60
2019-02-14T09:01:38.295Z,25.08
2019-02-14T09:04:14.348Z,24.90
2019-02-14T09:06:45.110Z,25.65
2019-02-14T09:09:17.496Z,29.70
2019-02-14T09:14:38.688Z,24.77
2019-02-14T09:17:10.305Z,38.55
2019-02-14T09:19:51.596Z,20.57
2019-02-14T09:27:52.365Z,33.67
2019-02-14T09:30:22.993Z,27.60
2019-02-14T09:32:53.838Z,38.13
2019-02-14T09:35:24.160Z,24.25
2019-02-14T09:38:02.976Z,17.00
2019-02-14T09:40:27.545Z,26.05
2019-02-14T09:43:01.149Z,26.50
2019-02-14T09:45:31.538Z,20.30
2019-02-14T09:48:03.970Z,20.52
2019-02-14T09:50:38.106Z,23.18
2019-02-14T09:53:16.125Z,23.70
2019-02-14T09:55:45.513Z,20.05
2019-02-14T09:58:18.059Z,30.57
2019-02-14T10:01:11.327Z,23.02
2019-02-14T10:04:07.166Z,24.77
2019-02-14T10:12:07.899Z,28.98
2019-02-14T10:14:49.824Z,35.00
2019-02-14T10:20:13.350Z,34.75
2019-02-14T10:25:37.268Z,35.63
2019-02-14T10:28:09.965Z,21.87
2019-02-14T10:36:42.377Z,22.77
2019-02-14T10:44:42.549Z,23.35
2019-02-14T10:48:01.396Z,19.85
2019-02-14T10:50:38.008Z,20.85
2019-02-14T10:53:19.181Z,16.62
2019-02-14T10:55:49.750Z,20.55
2019-02-14T10:58:20.614Z,33.67
2019-02-14T11:00:53.422Z,25.90
2019-02-14T11:03:24.146Z,25.97
2019-02-14T11:05:56.131Z,27.48
2019-02-14T11:08:31.970Z,20.02
2019-02-14T11:11:26.716Z,27.60
2019-02-14T11:13:53.408Z,34.45
2019-02-14T11:16:25.422Z,26.93
2019-02-14T11:19:01.499Z,32.67
2019-02-14T11:21:32.511Z,24.82
2019-02-14T11:24:03.213Z,21.60
2019-02-14T11:26:33.841Z,12.80
2019-02-14T11:29:11.592Z,26.48
2019-02-14T11:31:48.657Z,19.42
2019-02-14T11:34:20.022Z,23.87
2019-02-14T11:37:36.778Z,22.32
2019-02-14T11:40:26.367Z,25.80
2019-02-14T11:43:03.154Z,17.07
2019-02-14T11:45:33.862Z,25.20
2019-02-14T11:48:21.456Z,21.20
2019-02-14T11:51:00.616Z,25.57
2019-02-14T11:56:35.227Z,22.73
2019-02-14T11:59:06.315Z,35.70
2019-02-14T12:01:36.864Z,42.55
2019-02-14T12:04:08.806Z,29.23
2019-02-14T12:06:39.900Z,38.25
2019-02-14T12:09:10.585Z,29.00
2019-02-14T12:11:40.921Z,22.60
2019-02-14T12:14:13.793Z,24.12
2019-02-14T12:16:45.835Z,29.10
2019-02-14T12:19:16.507Z,50.35
2019-02-14T12:21:47.072Z,33.80
2019-02-14T12:24:17.685Z,29.30
2019-02-14T12:26:50.378Z,38.67
2019-02-14T12:29:20.670Z,29.35
2019-02-14T12:31:50.995Z,20.68
2019-02-14T12:34:51.652Z,22.55
2019-02-14T12:37:31.377Z,31.10
2019-02-14T12:40:01.959Z,20.32
2019-02-14T12:42:34.217Z,20.45
2019-02-14T12:45:04.589Z,26.97
2019-02-14T12:47:35.389Z,31.42
2019-02-14T12:55:40.999Z,19.67
2019-02-14T12:58:10.175Z,19.65
2019-02-14T13:00:54.701Z,16.12
2019-02-14T13:03:25.571Z,25.80
2019-02-14T13:05:56.662Z,37.42
2019-02-14T13:10:54.950Z,31.50
2019-02-14T13:13:25.354Z,30.25
2019-02-14T13:15:55.889Z,27.00
2019-02-14T13:18:30.889Z,27.73
2019-02-14T13:23:55.183Z,26.43
2019-02-14T13:29:38.233Z,35.30
2019-02-14T13:34:50.493Z,19.73
2019-02-14T13:37:41.364Z,34.55
2019-02-14T13:40:10.869Z,22.80
2019-02-14T13:42:44.293Z,23.12
2019-02-14T13:45:19.813Z,61.45
2019-02-14T13:47:50.375Z,65.00
2019-02-14T13:56:12.288Z,40.28
2019-02-14T13:59:11.909Z,68.35
2019-02-14T14:01:41.914Z,79.85
2019-02-14T14:06:48.463Z,52.83
2019-02-14T14:09:20.607Z,62.85
2019-02-14T14:14:21.910Z,50.65
2019-02-14T14:16:56.385Z,46.48
2019-02-14T14:19:47.756Z,32.38
2019-02-14T14:25:01.763Z,64.53
2019-02-14T14:30:25.462Z,40.23
2019-02-14T14:38:41.961Z,36.68
2019-02-14T14:41:14.369Z,33.73
2019-02-14T14:44:05.338Z,34.88
2019-02-14T14:52:23.717Z,29.27
2019-02-14T14:57:44.392Z,31.30
2019-02-14T15:00:14.578Z,26.37
2019-02-14T15:02:47.213Z,35.13
2019-02-14T15:05:20.427Z,26.97
2019-02-14T15:07:54.161Z,29.25
2019-02-14T15:10:24.056Z,28.47
2019-02-14T15:12:54.831Z,33.10
2019-02-14T15:15:26.751Z,28.87
2019-02-14T15:17:56.336Z,22.32
2019-02-14T15:20:26.014Z,37.67
2019-02-14T15:22:56.468Z,25.85
2019-02-14T15:25:26.117Z,24.10
2019-02-14T15:27:55.862Z,30.95
2019-02-14T15:30:25.598Z,22.67
2019-02-14T15:32:55.270Z,18.75
2019-02-14T15:35:24.822Z,24.50
2019-02-14T15:37:54.558Z,20.65
2019-02-14T15:40:24.241Z,26.30
2019-02-14T15:42:54.003Z,22.77
2019-02-14T15:45:23.606Z,20.68
2019-02-14T15:47:53.235Z,14.65
2019-02-14T15:50:23.080Z,28.67
2019-02-14T15:52:54.570Z,22.50
2019-02-14T15:55:24.344Z,16.75
2019-02-14T15:57:54.439Z,17.23
2019-02-14T16:00:24.067Z,17.48
2019-02-14T16:02:53.795Z,21.45
2019-02-14T16:05:23.506Z,19.10
2019-02-14T16:07:53.171Z,22.60
2019-02-14T16:10:22.880Z,20.25
2019-02-14T16:12:52.674Z,14.25
2019-02-14T16:15:22.486Z,14.15
2019-02-14T16:17:56.473Z,19.77
2019-02-14T16:20:27.073Z,16.67
2019-02-14T16:22:57.454Z,22.10
2019-02-14T16:25:28.206Z,17.65
2019-02-14T16:27:58.993Z,16.87
2019-02-14T16:30:30.894Z,11.00
2019-02-14T16:33:02.696Z,12.35
2019-02-14T16:35:33.046Z,13.05
2019-02-14T16:38:03.376Z,11.75
2019-02-14T16:40:38.524Z,17.40
2019-02-14T16:43:05.584Z,14.03
2019-02-14T16:45:35.839Z,18.62
2019-02-14T16:48:06.200Z,12.73
2019-02-14T16:50:36.471Z,16.77
2019-02-14T16:53:06.988Z,13.30
2019-02-14T16:55:37.257Z,12.35
2019-02-14T16:58:07.469Z,11.70
2019-02-14T17:00:37.798Z,17.23
2019-02-14T17:03:08.204Z,16.70
2019-02-14T17:05:38.558Z,12.53
2019-02-14T17:08:08.896Z,13.68
2019-02-14T17:10:39.127Z,14.38
2019-02-14T17:13:09.430Z,17.12
2019-02-14T17:15:39.910Z,15.93
2019-02-14T17:18:10.263Z,14.85
2019-02-14T17:20:40.606Z,16.42
2019-02-14T17:23:12.515Z,15.95
2019-02-14T17:25:42.897Z,17.13
2019-02-14T17:28:13.303Z,18.85
2019-02-14T17:30:43.758Z,17.70
2019-02-14T17:33:14.190Z,22.82
2019-02-14T17:35:44.579Z,13.80
2019-02-14T17:38:14.958Z,14.40
2019-02-14T17:40:46.378Z,14.50
2019-02-14T17:43:17.003Z,19.32
2019-02-14T17:45:47.369Z,15.00
2019-02-14T17:48:17.708Z,15.32
2019-02-14T17:50:48.008Z,18.87
2019-02-14T17:53:18.339Z,14.00
2019-02-14T17:55:48.476Z,18.35
2019-02-14T17:58:18.821Z,16.35
2019-02-14T18:00:49.063Z,18.12
2019-02-14T18:03:19.417Z,16.67
2019-02-14T18:05:49.684Z,20.43
2019-02-14T18:08:20.045Z,20.57
2019-02-14T18:10:54.905Z,17.65
2019-02-14T18:13:22.254Z,14.70
2019-02-14T18:15:52.656Z,18.27
2019-02-14T18:18:23.036Z,18.62
2019-02-14T18:20:53.496Z,17.07
2019-02-14T18:23:23.919Z,18.23
2019-02-14T18:25:54.362Z,18.17
2019-02-14T18:28:24.755Z,20.20
2019-02-14T18:30:55.233Z,17.23
2019-02-14T18:33:25.523Z,18.27
2019-02-14T18:35:55.890Z,19.98
2019-02-14T18:38:26.236Z,17.57
2019-02-14T18:41:03.941Z,18.45
2019-02-14T18:43:29.699Z,18.73
2019-02-14T18:46:00.277Z,21.37
2019-02-14T18:48:31.778Z,18.98
2019-02-14T18:51:02.206Z,19.17
2019-02-14T18:53:32.748Z,19.35
2019-02-14T18:56:03.055Z,21.48
2019-02-14T18:58:33.509Z,16.30
2019-02-14T19:01:03.845Z,20.85
2019-02-14T19:03:34.213Z,30.27
2019-02-14T19:06:04.573Z,23.42
2019-02-14T19:08:36.162Z,30.35
2019-02-14T19:11:15.009Z,30.45
2019-02-14T19:13:38.470Z,29.63
2019-02-14T19:16:08.798Z,30.00
2019-02-14T19:18:39.232Z,23.55
2019-02-14T19:21:09.622Z,22.50
2019-02-14T19:23:40.068Z,20.02
2019-02-14T19:26:10.377Z,20.20
2019-02-14T19:28:40.698Z,25.37
2019-02-14T19:31:11.105Z,18.82
2019-02-14T19:33:41.620Z,23.73
2019-02-14T19:36:12.007Z,16.17
2019-02-14T19:38:42.478Z,21.37
2019-02-14T19:41:12.860Z,19.55
2019-02-14T19:43:43.201Z,14.40
2019-02-14T19:46:13.643Z,17.02
2019-02-14T19:48:44.147Z,16.48
2019-02-14T19:51:14.592Z,16.82
2019-02-14T19:53:44.932Z,17.73
2019-02-14T19:56:15.349Z,20.60
2019-02-14T19:58:45.772Z,19.40
2019-02-14T20:01:16.141Z,18.35
2019-02-14T20:03:46.571Z,18.15
2019-02-14T20:06:17.032Z,18.23
2019-02-14T20:08:48.444Z,14.73
2019-02-14T20:11:18.761Z,14.87
2019-02-14T20:13:49.771Z,16.55
2019-02-14T20:16:20.429Z,15.70
2019-02-14T20:18:50.935Z,13.45
2019-02-14T20:21:21.525Z,17.30
2019-02-14T20:23:51.912Z,16.42
2019-02-14T20:26:22.220Z,15.78
2019-02-14T20:28:52.647Z,16.82
2019-02-14T20:31:23.021Z,15.35
2019-02-14T20:33:53.416Z,16.30
2019-02-14T20:36:23.764Z,16.12
2019-02-14T20:38:54.277Z,16.02
2019-02-14T20:41:24.649Z,15.20
2019-02-14T20:43:55.047Z,18.67
2019-02-14T20:46:25.402Z,13.20
2019-02-14T20:48:55.908Z,18.60
2019-02-14T20:51:26.397Z,12.60
2019-02-14T20:53:56.775Z,9.90
2019-02-14T20:56:27.199Z,11.00
2019-02-14T20:58:57.591Z,11.88
2019-02-14T21:01:28.056Z,11.73
2019-02-14T21:03:58.547Z,12.05
2019-02-14T21:06:30.100Z,11.50
2019-02-14T21:09:00.437Z,14.85
2019-02-14T21:11:32.409Z,12.70
2019-02-14T21:14:02.710Z,13.32
2019-02-14T21:16:33.151Z,15.25
2019-02-14T21:19:03.464Z,14.00
2019-02-14T21:21:33.683Z,12.98
2019-02-14T21:24:04.320Z,12.88
2019-02-14T21:26:34.873Z,11.40
2019-02-14T21:29:05.202Z,12.90
2019-02-14T21:31:35.716Z,11.00
2019-02-14T21:34:06.132Z,11.15
2019-02-14T21:36:36.676Z,12.78
2019-02-14T21:39:07.401Z,11.90
2019-02-14T21:41:39.155Z,11.85
2019-02-14T21:44:09.515Z,13.13
2019-02-14T21:46:39.947Z,13.50
2019-02-14T21:49:10.232Z,9.80
2019-02-14T21:51:40.683Z,12.00
2019-02-14T21:54:11.234Z,11.05
2019-02-14T21:56:41.612Z,12.65
2019-02-14T21:59:12.040Z,10.93
2019-02-14T22:01:42.528Z,12.35
2019-02-14T22:04:12.924Z,11.10
2019-02-14T22:06:43.406Z,10.55
2019-02-14T22:09:13.814Z,11.33
2019-02-14T22:11:44.242Z,11.57
2019-02-14T22:14:14.888Z,10.30
2019-02-14T22:16:45.361Z,11.33
2019-02-14T22:19:15.743Z,9.30
2019-02-14T22:21:46.033Z,9.50
2019-02-14T22:24:16.403Z,9.33
2019-02-14T22:26:46.760Z,12.00
2019-02-14T22:29:17.009Z,9.88
2019-02-14T22:31:47.474Z,11.83
2019-02-14T22:34:17.971Z,12.50
2019-02-14T22:36:48.377Z,11.78
2019-02-14T22:39:18.894Z,10.43
2019-02-14T22:41:49.353Z,9.33
2019-02-14T22:44:19.685Z,8.93
2019-02-14T22:46:49.998Z,9.50
2019-02-14T22:49:20.373Z,8.40
2019-02-14T22:51:50.603Z,9.68
2019-02-14T22:54:21.032Z,10.95
2019-02-14T22:56:51.306Z,10.72
2019-02-14T22:59:21.757Z,10.95
2019-02-14T23:01:52.125Z,10.15
2019-02-14T23:04:22.605Z,10.38
2019-02-14T23:06:53.009Z,12.88
2019-02-14T23:09:23.328Z,10.30
2019-02-14T23:11:53.769Z,11.08
2019-02-14T23:14:24.111Z,10.48
2019-02-14T23:16:54.568Z,10.00
2019-02-14T23:19:24.897Z,10.85
2019-02-14T23:21:55.268Z,10.93
2019-02-14T23:24:25.700Z,14.45
2019-02-14T23:26:57.202Z,9.78
2019-02-14T23:29:27.473Z,10.10
2019-02-14T23:31:58.015Z,10.10
2019-02-14T23:34:28.463Z,10.60
2019-02-14T23:36:58.791Z,10.18
2019-02-14T23:39:29.251Z,11.03
2019-02-14T23:41:59.723Z,10.13
2019-02-14T23:44:30.055Z,9.25
2019-02-14T23:47:00.466Z,11.15
2019-02-14T23:49:30.699Z,11.08
2019-02-14T23:52:01.173Z,11.33
2019-02-14T23:54:31.459Z,11.75
2019-02-14T23:57:01.879Z,11.43
2019-02-14T23:59:32.261Z,10.13
